Time;durP1;ratioP1;P1;durP2;ratioP2;P2;SDS_P1;SDS_P2;PMS_P1;PMS_P2;Temp;Humidity;BMP_temperature;BMP_pressure;BME280_temperature;BME280_humidity;BME280_pressure;Samples;Min_cycle;Max_cycle;Signal;HPM_P1;HPM_P2
2022/10/14 00:02:02;;;;;;;112.10;48.72;;;11.80;99.90;;;;;;4946164;29;20049;-59
2022/10/14 00:04:28;;;;;;;112.05;46.67;;;11.70;99.90;;;;;;4946945;29;20050;-57
2022/10/14 00:06:54;;;;;;;105.82;47.00;;;11.70;99.90;;;;;;4944475;29;20051;-56
2022/10/14 00:09:20;;;;;;;116.80;47.92;;;11.70;99.90;;;;;;4945317;29;20079;-57
2022/10/14 00:11:46;;;;;;;106.78;47.97;;;11.60;99.90;;;;;;4929223;29;20090;-57
2022/10/14 00:14:14;;;;;;;120.38;48.45;;;11.60;99.90;;;;;;4945839;29;20055;-57
2022/10/14 00:16:42;;;;;;;113.50;49.20;;;11.80;99.90;;;;;;4946330;29;20090;-57
2022/10/14 00:19:08;;;;;;;111.75;48.33;;;11.70;99.90;;;;;;4945448;29;20085;-58
2022/10/14 00:21:35;;;;;;;107.72;47.70;;;11.80;99.90;;;;;;4945958;29;20075;-58
2022/10/14 00:24:02;;;;;;;110.00;48.75;;;11.90;99.90;;;;;;4946328;29;20118;-59
2022/10/14 00:26:34;;;;;;;106.43;49.60;;;11.70;99.90;;;;;;4945525;29;20155;-58
2022/10/14 00:29:02;;;;;;;112.43;50.00;;;11.60;99.90;;;;;;4946519;29;20138;-57
2022/10/14 00:31:28;;;;;;;119.03;49.80;;;11.60;99.90;;;;;;4946318;29;20043;-58
2022/10/14 00:33:55;;;;;;;122.03;50.55;;;11.60;99.90;;;;;;4945847;29;20050;-58
2022/10/14 00:36:23;;;;;;;131.63;51.75;;;11.60;99.90;;;;;;4944803;29;20054;-57
2022/10/14 00:38:49;;;;;;;110.63;49.15;;;11.70;99.90;;;;;;4946080;29;20051;-58
2022/10/14 00:41:23;;;;;;;120.57;50.85;;;11.70;99.90;;;;;;4945337;29;20058;-58
2022/10/14 00:44:00;;;;;;;114.43;48.95;;;11.70;99.90;;;;;;4945756;29;20043;-57
2022/10/14 00:46:29;;;;;;;120.80;48.60;;;11.70;99.90;;;;;;4945843;29;20054;-58
2022/10/14 00:48:58;;;;;;;107.20;48.83;;;11.60;99.90;;;;;;4945613;29;20050;-58
2022/10/14 00:51:24;;;;;;;117.03;49.28;;;11.70;99.90;;;;;;4944689;29;20043;-57
2022/10/14 00:53:50;;;;;;;159.75;50.78;;;11.70;99.90;;;;;;4944890;28;20187;-58
2022/10/14 00:56:21;;;;;;;138.80;49.47;;;11.50;99.90;;;;;;4943556;29;20130;-58
2022/10/14 00:58:46;;;;;;;152.05;50.47;;;11.60;99.90;;;;;;4945375;29;20182;-57
2022/10/14 01:01:12;;;;;;;271.98;56.67;;;11.60;99.90;;;;;;4945796;29;20696;-58
2022/10/14 01:03:39;;;;;;;334.05;54.67;;;11.50;99.90;;;;;;4945447;29;20047;-55
2022/10/14 01:06:39;;;;;;;419.10;57.08;;;11.50;99.90;;;;;;4943890;29;20167;-58
2022/10/14 01:09:26;;;;;;;411.23;53.88;;;11.50;99.90;;;;;;4906621;29;20551;-58
2022/10/14 01:12:10;;;;;;;379.42;50.60;;;11.50;99.90;;;;;;4926222;29;20063;-58
2022/10/14 01:14:44;;;;;;;463.35;54.50;;;11.40;99.90;;;;;;4926036;29;20051;-58
2022/10/14 01:17:23;;;;;;;494.50;55.05;;;11.50;99.90;;;;;;4925839;29;20118;-57
2022/10/14 01:20:27;;;;;;;380.02;52.88;;;11.40;99.90;;;;;;4926224;29;20110;-58
2022/10/14 01:22:59;;;;;;;204.25;44.95;;;11.40;99.90;;;;;;4924105;29;20407;-58
2022/10/14 01:25:52;;;;;;;249.60;45.00;;;11.30;99.90;;;;;;4924852;29;20097;-58
2022/10/14 01:28:45;;;;;;;693.42;66.78;;;11.20;99.90;;;;;;4925514;29;20111;-59
2022/10/14 01:31:18;;;;;;;91.55;43.20;;;11.30;99.90;;;;;;4926116;29;20051;-58
2022/10/14 01:33:45;;;;;;;557.50;54.97;;;11.30;99.90;;;;;;4925958;29;20075;-58
2022/10/14 01:36:23;;;;;;;122.13;43.53;;;11.30;99.90;;;;;;4925080;29;20047;-57
2022/10/14 01:39:16;;;;;;;244.32;45.40;;;11.20;99.90;;;;;;4926018;29;20669;-57
2022/10/14 01:41:51;;;;;;;382.55;47.78;;;11.30;99.90;;;;;;4909055;29;20202;-58
2022/10/14 01:44:20;;;;;;;428.58;47.25;;;11.10;99.90;;;;;;4925574;29;20061;-58
2022/10/14 01:46:51;;;;;;;401.42;48.28;;;11.20;99.90;;;;;;4926174;29;20082;-58
2022/10/14 01:49:41;;;;;;;410.38;46.15;;;11.00;99.90;;;;;;4926093;29;20047;-56
2022/10/14 01:52:21;;;;;;;420.90;46.35;;;11.20;99.90;;;;;;4925570;29;20122;-58
2022/10/14 01:54:50;;;;;;;416.58;46.13;;;11.00;99.90;;;;;;4926213;29;20047;-57
2022/10/14 01:57:20;;;;;;;284.83;46.60;;;11.00;99.90;;;;;;4924932;29;20054;-57
2022/10/14 01:59:46;;;;;;;281.25;42.78;;;11.00;99.90;;;;;;4926122;29;20400;-57
2022/10/14 02:02:12;;;;;;;215.90;42.92;;;11.10;99.90;;;;;;4909077;29;20056;-56
2022/10/14 02:04:38;;;;;;;233.50;42.33;;;11.10;99.90;;;;;;4911392;29;20048;-57
2022/10/14 02:07:19;;;;;;;286.80;44.70;;;11.10;99.90;;;;;;4947657;29;20859;-57
2022/10/14 02:10:09;;;;;;;177.63;43.25;;;11.00;99.90;;;;;;4947998;29;20051;-57
2022/10/14 02:12:49;;;;;;;387.52;43.67;;;11.00;99.90;;;;;;4948017;29;20055;-57
2022/10/14 02:18:37;;;;;;;575.08;51.85;;;10.90;99.90;;;;;;4940857;28;20074;-57
2022/10/14 02:21:16;;;;;;;261.80;41.00;;;10.90;99.90;;;;;;4930050;29;20757;-58
2022/10/14 02:23:47;;;;;;;415.75;43.53;;;10.80;99.90;;;;;;4960243;28;20051;-55
2022/10/14 02:26:14;;;;;;;130.70;32.83;;;10.80;99.90;;;;;;4965033;28;20058;-57
2022/10/14 02:28:42;;;;;;;152.50;36.03;;;10.90;99.90;;;;;;4966868;28;20101;-58
2022/10/14 02:31:13;;;;;;;138.23;31.75;;;10.80;99.90;;;;;;4966120;28;20039;-57
2022/10/14 02:33:42;;;;;;;195.18;31.27;;;10.70;99.90;;;;;;4966799;28;20047;-57
2022/10/14 02:36:10;;;;;;;116.80;29.77;;;10.80;99.90;;;;;;4966118;28;20101;-57
2022/10/14 02:38:38;;;;;;;315.52;35.35;;;10.70;99.90;;;;;;4967367;28;20102;-56
2022/10/14 02:41:07;;;;;;;181.55;31.52;;;10.70;99.90;;;;;;4966743;28;20386;-58
2022/10/14 02:43:34;;;;;;;320.35;35.88;;;10.60;99.90;;;;;;4949465;28;20051;-57
2022/10/14 02:46:03;;;;;;;284.00;34.88;;;10.60;99.90;;;;;;4967857;28;20374;-57
2022/10/14 02:48:28;;;;;;;326.00;37.65;;;10.60;99.90;;;;;;4966319;28;20070;-57
2022/10/14 02:50:54;;;;;;;164.43;32.58;;;10.50;99.90;;;;;;4966271;28;20489;-57
2022/10/14 02:53:20;;;;;;;220.00;33.58;;;10.50;99.90;;;;;;4966570;28;20039;-57
2022/10/14 02:55:45;;;;;;;154.05;32.80;;;10.50;99.90;;;;;;4966893;28;20490;-57
2022/10/14 02:58:11;;;;;;;187.82;32.28;;;10.50;99.90;;;;;;4966500;28;20050;-57
2022/10/14 03:00:37;;;;;;;207.00;35.80;;;10.60;99.90;;;;;;4966640;28;20042;-58
2022/10/14 03:03:02;;;;;;;322.90;37.17;;;10.50;99.90;;;;;;4959963;28;20130;-58
2022/10/14 03:05:28;;;;;;;336.27;34.75;;;10.60;99.90;;;;;;4953718;28;20557;-57
2022/10/14 03:07:54;;;;;;;103.20;27.67;;;10.40;99.90;;;;;;4947522;29;20135;-57
2022/10/14 03:10:20;;;;;;;344.13;35.63;;;10.50;99.90;;;;;;4946847;29;20066;-56
2022/10/14 03:12:45;;;;;;;256.25;31.85;;;10.30;99.90;;;;;;4948095;29;20447;-57
2022/10/14 03:15:12;;;;;;;225.80;31.23;;;10.40;99.90;;;;;;4945929;28;20092;-57
2022/10/14 03:17:37;;;;;;;426.30;35.97;;;10.40;99.90;;;;;;4946400;29;20082;-57
2022/10/14 03:20:04;;;;;;;354.02;34.55;;;10.30;99.90;;;;;;4946463;29;20584;-58
2022/10/14 03:22:30;;;;;;;206.90;30.15;;;10.30;99.90;;;;;;4926462;29;20059;-58
2022/10/14 03:24:56;;;;;;;74.93;25.85;;;10.20;99.90;;;;;;4929329;29;20162;-57
2022/10/14 03:27:21;;;;;;;270.98;31.33;;;10.30;99.90;;;;;;4926752;29;20099;-57
2022/10/14 03:29:47;;;;;;;119.90;27.15;;;10.20;99.90;;;;;;4946411;29;20457;-57
2022/10/14 03:32:12;;;;;;;159.07;27.88;;;10.20;99.90;;;;;;4946341;29;20582;-56
2022/10/14 03:34:38;;;;;;;93.35;26.83;;;10.10;99.90;;;;;;4946502;29;20066;-56
2022/10/14 03:37:04;;;;;;;305.63;32.70;;;10.20;99.90;;;;;;4947751;29;20043;-57
2022/10/14 03:39:30;;;;;;;177.32;28.20;;;10.10;99.90;;;;;;4947211;29;20047;-57
2022/10/14 03:41:56;;;;;;;82.22;22.60;;;10.10;99.90;;;;;;4946769;29;20730;-57
2022/10/14 03:44:22;;;;;;;207.98;25.92;;;10.00;99.90;;;;;;4946550;29;20059;-58
2022/10/14 03:46:47;;;;;;;44.15;18.30;;;9.90;99.90;;;;;;4947004;29;20044;-55
2022/10/14 03:49:13;;;;;;;71.72;21.08;;;9.80;99.90;;;;;;4946577;29;20490;-58
2022/10/14 03:51:38;;;;;;;142.65;22.35;;;9.90;99.90;;;;;;4945171;29;20681;-57
2022/10/14 03:54:04;;;;;;;65.22;18.63;;;9.90;99.90;;;;;;4946363;29;20679;-56
2022/10/14 03:56:30;;;;;;;268.95;26.65;;;9.90;99.90;;;;;;4947596;29;20066;-57
2022/10/14 03:58:55;;;;;;;56.08;19.27;;;9.90;99.90;;;;;;4946114;29;20554;-57
2022/10/14 04:01:21;;;;;;;48.17;20.30;;;9.80;99.90;;;;;;4946094;29;20126;-57
2022/10/14 04:03:47;;;;;;;37.25;11.75;;;9.80;99.90;;;;;;4946258;29;20087;-57
2022/10/14 04:06:13;;;;;;;220.13;20.70;;;9.80;99.90;;;;;;4921740;29;20053;-58
2022/10/14 04:08:39;;;;;;;219.82;21.70;;;9.80;99.90;;;;;;4946076;29;20046;-58
2022/10/14 04:11:05;;;;;;;85.30;19.27;;;9.80;99.90;;;;;;4946458;29;20445;-57
2022/10/14 04:13:31;;;;;;;79.47;19.05;;;9.80;99.90;;;;;;4929110;29;20043;-58
2022/10/14 04:16:05;;;;;;;83.35;20.65;;;9.80;99.90;;;;;;4928662;29;20047;-58
2022/10/14 04:18:31;;;;;;;112.07;21.02;;;9.80;99.90;;;;;;4945955;29;20074;-57
2022/10/14 04:21:05;;;;;;;56.90;17.58;;;9.80;99.90;;;;;;4928236;29;20051;-57
2022/10/14 04:23:31;;;;;;;75.90;20.77;;;9.80;99.90;;;;;;4945561;29;20047;-58
2022/10/14 04:25:57;;;;;;;38.75;15.20;;;9.70;99.90;;;;;;4946274;29;20051;-57
2022/10/14 04:28:23;;;;;;;54.53;17.23;;;9.80;99.90;;;;;;4945666;28;20046;-58
2022/10/14 04:30:49;;;;;;;45.63;15.88;;;9.80;99.90;;;;;;4945049;29;20139;-58
2022/10/14 04:33:14;;;;;;;145.30;20.23;;;9.80;99.90;;;;;;4945708;29;20126;-57
2022/10/14 04:35:40;;;;;;;53.88;18.45;;;9.80;99.90;;;;;;4944908;29;20051;-56
2022/10/14 04:38:05;;;;;;;131.15;21.63;;;9.80;99.90;;;;;;4944921;29;20043;-58
2022/10/14 04:40:31;;;;;;;51.50;19.02;;;9.80;99.90;;;;;;4927370;29;20049;-57
2022/10/14 04:42:58;;;;;;;48.80;19.83;;;9.90;99.90;;;;;;4946768;29;20090;-57
2022/10/14 04:45:24;;;;;;;136.18;22.55;;;9.90;99.90;;;;;;4944678;29;20058;-57
2022/10/14 04:47:50;;;;;;;53.00;20.45;;;9.90;99.90;;;;;;4945573;29;20074;-57
2022/10/14 04:50:17;;;;;;;53.72;22.50;;;9.90;99.90;;;;;;4928343;29;20482;-58
2022/10/14 04:52:43;;;;;;;61.65;22.42;;;10.00;99.90;;;;;;4928319;29;20092;-58
2022/10/14 04:55:09;;;;;;;92.47;24.00;;;10.00;99.90;;;;;;4928224;29;20067;-57
2022/10/14 04:57:35;;;;;;;45.15;20.40;;;10.00;99.90;;;;;;4945024;29;20176;-58
2022/10/14 05:00:02;;;;;;;59.58;21.30;;;10.10;99.90;;;;;;4929114;29;20051;-58
2022/10/14 05:02:28;;;;;;;55.33;21.50;;;10.10;99.90;;;;;;4946300;29;20039;-58
2022/10/14 05:04:53;;;;;;;56.92;21.35;;;10.00;99.90;;;;;;4943335;28;20051;-58
2022/10/14 05:07:19;;;;;;;76.13;23.25;;;10.10;99.90;;;;;;4944892;29;20189;-58
2022/10/14 05:09:45;;;;;;;45.80;18.60;;;10.10;99.90;;;;;;4945929;29;20130;-57
2022/10/14 05:12:10;;;;;;;111.63;24.10;;;10.20;99.90;;;;;;4945563;29;20043;-57
2022/10/14 05:14:36;;;;;;;61.53;20.80;;;10.10;99.90;;;;;;4944730;29;20054;-57
2022/10/14 05:17:02;;;;;;;49.88;19.55;;;10.20;99.90;;;;;;4945273;29;20058;-59
2022/10/14 05:19:28;;;;;;;45.70;18.25;;;10.20;99.90;;;;;;4944731;29;20062;-58
2022/10/14 05:21:53;;;;;;;85.65;20.55;;;10.10;99.90;;;;;;4944750;29;20117;-58
2022/10/14 05:24:19;;;;;;;50.95;19.52;;;10.10;99.90;;;;;;4944248;29;20062;-57
2022/10/14 05:26:44;;;;;;;48.42;19.40;;;10.00;99.90;;;;;;4945108;29;20043;-58
2022/10/14 05:29:11;;;;;;;75.15;21.98;;;10.10;99.90;;;;;;4944489;29;20043;-58
2022/10/14 05:31:37;;;;;;;79.90;22.40;;;10.20;99.90;;;;;;4944564;29;20512;-56
2022/10/14 05:34:02;;;;;;;71.22;21.98;;;10.10;99.90;;;;;;4945385;29;20049;-58
2022/10/14 05:36:28;;;;;;;53.70;21.45;;;10.10;99.90;;;;;;4945097;29;20494;-57
2022/10/14 05:38:57;;;;;;;69.18;21.25;;;10.10;99.90;;;;;;4944508;29;20475;-57
2022/10/14 05:41:26;;;;;;;47.58;19.63;;;10.10;99.90;;;;;;4944061;29;20047;-58
2022/10/14 05:43:52;;;;;;;58.45;21.65;;;10.20;99.90;;;;;;4928265;29;20131;-58
2022/10/14 05:46:17;;;;;;;65.45;22.17;;;10.20;99.90;;;;;;4945371;29;20123;-58
2022/10/14 05:48:43;;;;;;;91.82;23.67;;;10.10;99.90;;;;;;4945018;29;20054;-58
2022/10/14 05:51:09;;;;;;;83.57;23.33;;;10.10;99.90;;;;;;4944021;29;20051;-57
2022/10/14 05:53:35;;;;;;;62.92;19.92;;;10.20;99.90;;;;;;4944412;29;20043;-57
2022/10/14 05:56:06;;;;;;;60.80;20.63;;;10.10;99.90;;;;;;4945095;29;20047;-57
2022/10/14 05:58:32;;;;;;;63.00;20.67;;;10.20;99.90;;;;;;4944751;29;20039;-57
2022/10/14 06:01:02;;;;;;;62.80;19.98;;;10.30;99.90;;;;;;4944708;29;20043;-57
2022/10/14 06:03:28;;;;;;;69.72;21.23;;;10.20;99.90;;;;;;4944791;29;20047;-58
2022/10/14 06:05:54;;;;;;;79.93;24.45;;;10.10;99.90;;;;;;4942786;28;20050;-57
2022/10/14 06:08:21;;;;;;;86.00;21.88;;;10.20;99.90;;;;;;4944198;29;20047;-57
2022/10/14 06:10:47;;;;;;;69.95;22.08;;;10.20;99.90;;;;;;4944322;29;20054;-57
2022/10/14 06:13:13;;;;;;;126.65;28.20;;;10.10;99.90;;;;;;4944020;29;20050;-58
2022/10/14 06:15:38;;;;;;;93.70;25.80;;;10.10;99.90;;;;;;4924674;29;20058;-58
2022/10/14 06:18:04;;;;;;;88.43;26.05;;;10.10;99.90;;;;;;4944233;29;20063;-57
2022/10/14 06:20:30;;;;;;;88.07;25.40;;;10.10;99.90;;;;;;4944224;29;20047;-58
2022/10/14 06:22:58;;;;;;;82.97;25.50;;;10.20;99.90;;;;;;4944535;29;20055;-57
2022/10/14 06:25:24;;;;;;;86.85;26.30;;;10.20;99.90;;;;;;4944378;29;20597;-57
2022/10/14 06:27:50;;;;;;;80.85;25.83;;;10.30;99.90;;;;;;4927331;29;20146;-58
2022/10/14 06:30:15;;;;;;;82.07;26.38;;;10.10;99.90;;;;;;4944144;29;20469;-58
2022/10/14 06:32:41;;;;;;;85.63;28.35;;;10.40;99.90;;;;;;4927932;29;20089;-58
2022/10/14 06:35:08;;;;;;;85.78;27.55;;;10.30;99.90;;;;;;4944085;29;20486;-58
2022/10/14 06:37:33;;;;;;;84.63;28.08;;;10.20;99.90;;;;;;4943950;29;20047;-57
2022/10/14 06:39:59;;;;;;;79.68;27.73;;;10.40;99.90;;;;;;4944648;29;20039;-57
2022/10/14 06:42:24;;;;;;;78.70;27.60;;;10.40;99.90;;;;;;4944336;29;20463;-58
2022/10/14 06:44:50;;;;;;;78.05;27.70;;;10.50;99.90;;;;;;4944417;29;20465;-58
2022/10/14 06:47:16;;;;;;;79.00;28.55;;;10.30;99.90;;;;;;4944365;29;20066;-58
2022/10/14 06:49:41;;;;;;;86.40;30.35;;;10.40;99.90;;;;;;4943800;28;20051;-58
2022/10/14 06:52:07;;;;;;;86.28;30.50;;;10.50;99.90;;;;;;4946044;29;20047;-58
2022/10/14 06:54:33;;;;;;;68.07;26.88;;;10.50;99.90;;;;;;4948166;29;20110;-58
2022/10/14 06:56:58;;;;;;;68.07;28.02;;;10.60;99.90;;;;;;4947947;29;20550;-58
2022/10/14 06:59:24;;;;;;;64.95;26.92;;;10.40;99.90;;;;;;4947545;29;20130;-57
2022/10/14 07:01:50;;;;;;;63.22;27.55;;;10.40;99.90;;;;;;4947325;29;20117;-58
2022/10/14 07:04:16;;;;;;;65.20;27.38;;;10.40;99.90;;;;;;4943476;29;20047;-58
2022/10/14 07:06:41;;;;;;;70.38;30.33;;;10.60;99.90;;;;;;4945544;29;20536;-58
2022/10/14 07:09:07;;;;;;;67.65;29.83;;;10.60;99.90;;;;;;4946503;29;20450;-58
2022/10/14 07:11:33;;;;;;;68.47;30.45;;;10.60;99.90;;;;;;4946822;29;20043;-57
2022/10/14 07:13:59;;;;;;;67.97;30.33;;;10.70;99.90;;;;;;4947197;29;20047;-58
2022/10/14 07:16:25;;;;;;;60.17;29.92;;;10.60;99.90;;;;;;4947357;29;20661;-58
2022/10/14 07:18:51;;;;;;;54.05;25.25;;;10.90;99.90;;;;;;4947417;29;20047;-58
2022/10/14 07:21:16;;;;;;;56.75;28.08;;;10.60;99.90;;;;;;4946838;29;20482;-59
2022/10/14 07:23:42;;;;;;;52.10;27.10;;;10.80;99.90;;;;;;4946580;29;20098;-59
2022/10/14 07:26:07;;;;;;;53.45;27.17;;;10.80;99.90;;;;;;4947516;29;20055;-59
2022/10/14 07:28:33;;;;;;;53.92;28.42;;;10.70;99.90;;;;;;4947880;29;20044;-59
2022/10/14 07:31:02;;;;;;;57.03;27.92;;;10.70;99.90;;;;;;4948093;29;20043;-58
2022/10/14 07:33:27;;;;;;;55.97;28.02;;;11.00;99.90;;;;;;4947283;29;20047;-58
2022/10/14 07:35:53;;;;;;;56.22;27.77;;;10.70;99.90;;;;;;4946638;29;20039;-57
2022/10/14 07:38:19;;;;;;;52.63;27.50;;;10.80;99.90;;;;;;4947051;29;20051;-58
2022/10/14 07:40:55;;;;;;;52.35;26.83;;;10.70;99.90;;;;;;4947199;29;20054;-58
2022/10/14 07:43:21;;;;;;;53.80;27.05;;;10.80;99.90;;;;;;4946552;29;20054;-57
2022/10/14 07:45:47;;;;;;;55.25;27.63;;;10.60;99.90;;;;;;4947105;29;20047;-58
2022/10/14 07:48:12;;;;;;;57.47;28.95;;;10.80;99.90;;;;;;4946762;29;20042;-58
2022/10/14 07:50:38;;;;;;;53.83;29.15;;;10.70;99.90;;;;;;4946379;29;20140;-67
2022/10/14 07:53:04;;;;;;;58.00;30.60;;;10.60;99.90;;;;;;4946874;29;20106;-67
2022/10/14 07:55:29;;;;;;;60.53;31.83;;;10.60;99.90;;;;;;4947519;29;20114;-67
2022/10/14 07:57:55;;;;;;;62.25;31.77;;;10.70;99.90;;;;;;4946578;29;20051;-67
2022/10/14 08:00:20;;;;;;;56.42;30.35;;;10.60;99.90;;;;;;4946864;29;20051;-66
2022/10/14 08:02:46;;;;;;;55.17;27.88;;;10.90;99.90;;;;;;4929060;29;20059;-67
2022/10/14 08:05:12;;;;;;;54.17;28.75;;;10.80;99.90;;;;;;4944006;28;20047;-65
2022/10/14 08:07:37;;;;;;;47.25;27.65;;;10.80;99.90;;;;;;4944586;29;20130;-66
2022/10/14 08:10:03;;;;;;;50.65;28.77;;;10.90;99.90;;;;;;4946268;29;20126;-67
2022/10/14 08:12:29;;;;;;;53.80;28.08;;;11.00;99.90;;;;;;4946976;29;20079;-66
2022/10/14 08:14:56;;;;;;;54.72;29.77;;;11.00;99.90;;;;;;4946114;29;20125;-66
2022/10/14 08:17:22;;;;;;;53.92;29.75;;;10.90;99.90;;;;;;4928653;29;20098;-67
2022/10/14 08:19:51;;;;;;;53.00;29.73;;;11.10;99.90;;;;;;4946240;29;20079;-67
2022/10/14 08:22:16;;;;;;;51.38;28.38;;;10.80;99.90;;;;;;4945042;29;20044;-67
2022/10/14 08:24:43;;;;;;;48.38;26.35;;;11.00;99.90;;;;;;4945719;29;20054;-67
2022/10/14 08:27:09;;;;;;;50.47;28.30;;;11.00;99.90;;;;;;4946222;29;20486;-66
2022/10/14 08:29:34;;;;;;;47.70;27.27;;;11.10;99.90;;;;;;4942518;28;20395;-66
2022/10/14 08:32:00;;;;;;;47.15;26.88;;;11.00;99.90;;;;;;4929590;29;20047;-67
2022/10/14 08:34:26;;;;;;;44.00;26.35;;;11.10;99.90;;;;;;4918528;29;20050;-66
2022/10/14 08:36:52;;;;;;;41.55;24.75;;;11.20;99.90;;;;;;4951963;28;20050;-66
2022/10/14 08:39:19;;;;;;;44.45;26.10;;;11.10;99.90;;;;;;4964707;28;20050;-68
2022/10/14 08:42:05;;;;;;;40.22;24.58;;;11.40;99.90;;;;;;4940010;28;20460;-66
2022/10/14 08:44:55;;;;;;;39.78;24.35;;;11.40;99.90;;;;;;4938844;28;20047;-65
2022/10/14 08:47:39;;;;;;;36.80;22.83;;;11.50;99.90;;;;;;4928933;28;20055;-64
2022/10/14 08:50:29;;;;;;;33.20;21.75;;;11.40;99.90;;;;;;4923291;29;20051;-67
2022/10/14 08:53:13;;;;;;;35.08;22.27;;;11.70;99.90;;;;;;4927029;29;20055;-66
2022/10/14 08:55:45;;;;;;;33.57;22.70;;;11.70;99.90;;;;;;4927090;29;20407;-67
2022/10/14 08:58:43;;;;;;;35.25;21.70;;;11.80;99.90;;;;;;4926663;29;20319;-66
2022/10/14 09:01:23;;;;;;;34.67;22.05;;;11.80;99.90;;;;;;4922973;29;20070;-66
2022/10/14 09:03:52;;;;;;;34.53;21.73;;;11.90;99.90;;;;;;4925504;29;20707;-67
2022/10/14 09:06:30;;;;;;;32.88;20.50;;;11.90;99.90;;;;;;4938430;29;20059;-66
2022/10/14 09:09:11;;;;;;;31.05;19.75;;;12.00;99.90;;;;;;4926181;29;20051;-67
2022/10/14 09:11:42;;;;;;;33.63;20.88;;;11.80;99.90;;;;;;4926209;29;20402;-67
2022/10/14 09:14:15;;;;;;;34.17;22.10;;;12.00;99.90;;;;;;4924096;29;20047;-67
2022/10/14 09:16:41;;;;;;;31.50;21.15;;;12.00;99.90;;;;;;4925836;29;20059;-68
2022/10/14 09:19:39;;;;;;;34.42;21.75;;;12.00;99.90;;;;;;4925607;29;20055;-68
2022/10/14 09:22:13;;;;;;;32.53;21.83;;;11.90;99.90;;;;;;4905419;29;20098;-67
2022/10/14 09:24:39;;;;;;;32.22;21.27;;;12.00;99.90;;;;;;4927006;29;20039;-67
2022/10/14 09:27:17;;;;;;;32.88;21.60;;;12.00;99.90;;;;;;4926476;29;20098;-67
2022/10/14 09:29:52;;;;;;;31.75;21.38;;;12.20;99.90;;;;;;4926056;29;20057;-66
2022/10/14 09:32:28;;;;;;;33.70;20.95;;;12.20;99.90;;;;;;4909333;29;20106;-67
2022/10/14 09:34:56;;;;;;;32.28;21.35;;;12.40;99.90;;;;;;4925249;29;20052;-65
2022/10/14 09:37:24;;;;;;;33.45;22.58;;;12.30;99.90;;;;;;4926303;29;20147;-65
2022/10/14 09:39:52;;;;;;;33.50;22.88;;;12.40;99.90;;;;;;4926548;29;20055;-65
2022/10/14 09:42:34;;;;;;;36.45;22.02;;;12.30;99.90;;;;;;4925568;29;20411;-65
2022/10/14 09:45:15;;;;;;;32.88;22.65;;;12.30;99.90;;;;;;4927275;29;20059;-67
2022/10/14 09:48:06;;;;;;;33.70;22.73;;;12.40;99.90;;;;;;4925929;29;20044;-65
2022/10/14 09:50:37;;;;;;;33.95;22.92;;;12.40;99.90;;;;;;4926251;29;20063;-69
2022/10/14 09:53:12;;;;;;;33.67;22.02;;;12.60;99.90;;;;;;4926177;29;20044;-67
2022/10/14 09:55:46;;;;;;;32.97;23.23;;;12.50;99.90;;;;;;4928527;28;20067;-65
2022/10/14 09:58:16;;;;;;;33.05;23.05;;;12.70;99.90;;;;;;4935929;28;20927;-66
2022/10/14 10:00:42;;;;;;;36.42;22.88;;;12.50;99.90;;;;;;4930709;29;20102;-65
2022/10/14 10:03:24;;;;;;;35.50;23.92;;;12.70;99.90;;;;;;4942713;29;20620;-64
2022/10/14 10:06:00;;;;;;;36.28;22.27;;;12.80;99.90;;;;;;4941551;28;20131;-66
2022/10/14 10:08:25;;;;;;;29.23;17.05;;;12.90;99.90;;;;;;4944433;29;20781;-67
2022/10/14 10:10:59;;;;;;;32.65;20.25;;;12.90;99.90;;;;;;4938187;29;20130;-66
2022/10/14 10:13:35;;;;;;;35.83;22.80;;;12.80;99.90;;;;;;4939516;29;20463;-66
2022/10/14 10:16:05;;;;;;;37.80;22.58;;;12.60;99.90;;;;;;4928126;29;20407;-65
2022/10/14 10:18:30;;;;;;;36.15;22.92;;;12.80;99.90;;;;;;4936900;29;20102;-68
2022/10/14 10:21:14;;;;;;;36.35;23.77;;;12.90;99.90;;;;;;4944676;29;20050;-66
2022/10/14 10:23:59;;;;;;;37.72;23.90;;;12.70;99.90;;;;;;4944619;29;20039;-66
2022/10/14 10:26:32;;;;;;;38.03;23.77;;;12.70;99.90;;;;;;4945339;28;20142;-67
2022/10/14 10:29:01;;;;;;;38.58;24.83;;;12.70;99.90;;;;;;4948305;29;20039;-64
2022/10/14 10:31:48;;;;;;;37.47;24.33;;;12.80;99.90;;;;;;4930259;29;20086;-66
2022/10/14 10:34:36;;;;;;;44.10;25.88;;;12.90;99.90;;;;;;4946819;29;20435;-64
2022/10/14 10:37:23;;;;;;;44.80;25.88;;;12.60;99.90;;;;;;4948062;29;20047;-69
2022/10/14 10:40:09;;;;;;;41.13;24.20;;;12.80;99.90;;;;;;4934427;29;20047;-65
2022/10/14 10:42:50;;;;;;;41.78;25.52;;;12.60;99.90;;;;;;4948190;29;20043;-64
2022/10/14 10:45:34;;;;;;;44.55;26.73;;;12.50;99.90;;;;;;4946515;29;20047;-66
2022/10/14 10:48:17;;;;;;;46.17;26.05;;;12.80;99.90;;;;;;4948147;29;20430;-65
2022/10/14 10:51:01;;;;;;;46.17;26.52;;;12.60;99.90;;;;;;4929269;29;20059;-70
2022/10/14 10:53:59;;;;;;;46.25;26.35;;;12.80;99.90;;;;;;4947871;29;20154;-65
2022/10/14 10:56:38;;;;;;;49.97;28.13;;;12.60;99.90;;;;;;4946620;29;20054;-77
2022/10/14 10:59:25;;;;;;;49.42;28.35;;;12.60;99.90;;;;;;4943061;29;20483;-65
2022/10/14 11:02:23;;;;;;;48.40;28.00;;;12.60;99.90;;;;;;4935181;29;20490;-67
2022/10/14 11:04:55;;;;;;;46.53;27.45;;;12.70;99.90;;;;;;4918958;29;20719;-66
2022/10/14 11:13:55;;;;;;;50.40;29.15;;;12.80;99.90;;;;;;4916247;29;20086;-66
2022/10/14 11:16:37;;;;;;;49.35;26.83;;;12.80;99.90;;;;;;4946499;29;20055;-65
2022/10/14 11:19:14;;;;;;;50.40;29.25;;;12.80;99.90;;;;;;4946693;29;20051;-66
2022/10/14 11:21:58;;;;;;;54.50;29.77;;;12.80;99.90;;;;;;4944382;29;20043;-66
2022/10/14 11:25:04;;;;;;;54.17;30.35;;;12.70;99.90;;;;;;4943272;29;20054;-66
2022/10/14 11:27:36;;;;;;;57.90;30.45;;;12.60;99.90;;;;;;4947634;29;20402;-65
2022/10/14 11:30:02;;;;;;;58.70;30.58;;;12.50;99.90;;;;;;4941577;29;20051;-66
2022/10/14 11:32:42;;;;;;;54.75;30.02;;;12.80;99.90;;;;;;4930509;29;20493;-66
2022/10/14 11:35:43;;;;;;;55.80;30.20;;;12.60;99.90;;;;;;4946684;29;20058;-66
2022/10/14 11:38:27;;;;;;;58.50;29.42;;;12.60;99.90;;;;;;4926157;29;20070;-66
2022/10/14 11:41:02;;;;;;;67.05;33.20;;;12.80;99.90;;;;;;4946972;29;20048;-65
2022/10/14 11:44:02;;;;;;;55.92;28.17;;;12.60;99.90;;;;;;4932201;29;20409;-66
2022/10/14 11:46:35;;;;;;;60.67;32.58;;;12.90;99.90;;;;;;4927759;29;20462;-65
2022/10/14 11:49:08;;;;;;;65.15;31.80;;;12.90;99.90;;;;;;4929545;29;20051;-66
2022/10/14 11:51:43;;;;;;;60.22;32.70;;;12.80;99.90;;;;;;4946535;29;20031;-66
2022/10/14 11:54:15;;;;;;;59.83;31.02;;;12.90;99.90;;;;;;4945506;29;20047;-66
2022/10/14 11:57:01;;;;;;;60.13;30.95;;;12.70;99.90;;;;;;4929575;29;20744;-65
2022/10/14 11:59:39;;;;;;;61.15;31.35;;;12.90;99.90;;;;;;4947332;29;20119;-65
2022/10/14 12:02:46;;;;;;;57.75;28.35;;;12.80;99.90;;;;;;4946101;29;20393;-67
2022/10/14 12:05:44;;;;;;;60.40;31.75;;;12.70;99.90;;;;;;4935906;28;20054;-67
2022/10/14 12:08:20;;;;;;;60.78;32.00;;;12.80;99.90;;;;;;4956655;28;20062;-66
2022/10/14 12:10:52;;;;;;;63.92;32.97;;;13.00;99.90;;;;;;4948664;28;20038;-66
2022/10/14 12:13:25;;;;;;;58.95;32.40;;;13.10;99.90;;;;;;4957281;28;20090;-65
2022/10/14 12:15:52;;;;;;;58.65;30.85;;;12.70;99.90;;;;;;4946751;29;20031;-65
2022/10/14 12:18:21;;;;;;;56.13;30.35;;;12.80;99.90;;;;;;4937912;28;20055;-66
2022/10/14 12:20:59;;;;;;;58.30;30.10;;;13.00;99.90;;;;;;4944885;29;20644;-66
2022/10/14 12:23:31;;;;;;;59.33;31.83;;;12.80;99.90;;;;;;4945046;29;20543;-66
2022/10/14 12:26:09;;;;;;;58.22;30.70;;;13.10;99.90;;;;;;4946303;29;20047;-66
2022/10/14 12:28:36;;;;;;;59.72;31.52;;;13.00;99.90;;;;;;4946331;29;20098;-66
2022/10/14 12:31:31;;;;;;;64.53;32.15;;;13.00;99.90;;;;;;4945247;29;20447;-66
2022/10/14 12:34:14;;;;;;;61.00;33.92;;;13.10;99.90;;;;;;4945495;29;20047;-66
2022/10/14 12:36:49;;;;;;;56.63;31.35;;;13.00;99.90;;;;;;4951970;28;20055;-66
2022/10/14 12:39:17;;;;;;;59.05;32.80;;;13.10;99.90;;;;;;4945381;29;20411;-66
2022/10/14 12:42:02;;;;;;;58.20;31.73;;;13.10;99.90;;;;;;4945807;29;20043;-66
2022/10/14 12:44:54;;;;;;;54.08;30.27;;;13.10;99.90;;;;;;4928415;29;20502;-66
2022/10/14 12:47:33;;;;;;;54.75;31.45;;;13.20;99.90;;;;;;4945080;29;20510;-66
2022/10/14 12:50:30;;;;;;;54.88;31.88;;;13.20;99.90;;;;;;4945266;29;20047;-66
2022/10/14 12:53:05;;;;;;;56.03;32.70;;;13.10;99.90;;;;;;4928124;29;20612;-66
2022/10/14 12:55:38;;;;;;;55.58;31.65;;;13.10;99.90;;;;;;4912541;29;20110;-66
2022/10/14 12:58:05;;;;;;;57.47;33.60;;;13.20;99.90;;;;;;4945187;29;20107;-66